sensor_id;sensor_type;location;lat;lon;timestamp;pressure;altitude;pressure_sealevel;temperature;humidity
77706;BME280;66874;45.274;5.880;2024-01-27T00:00:10;100499.59;;;6.46;80.07
77706;BME280;66874;45.274;5.880;2024-01-27T00:02:36;100490.94;;;6.46;80.03
77706;BME280;66874;45.274;5.880;2024-01-27T00:05:02;100482.13;;;6.41;80.16
77706;BME280;66874;45.274;5.880;2024-01-27T00:07:28;100487.28;;;6.38;80.35
77706;BME280;66874;45.274;5.880;2024-01-27T00:09:54;100484.66;;;6.36;80.27
77706;BME280;66874;45.274;5.880;2024-01-27T00:12:19;100494.97;;;6.31;80.37
77706;BME280;66874;45.274;5.880;2024-01-27T00:14:45;100487.97;;;6.29;80.46
77706;BME280;66874;45.274;5.880;2024-01-27T00:17:10;100486.16;;;6.26;80.26
77706;BME280;66874;45.274;5.880;2024-01-27T00:19:36;100483.56;;;6.26;80.47
77706;BME280;66874;45.274;5.880;2024-01-27T00:22:01;100482.69;;;6.26;80.51
77706;BME280;66874;45.274;5.880;2024-01-27T00:24:27;100487.03;;;6.25;80.66
77706;BME280;66874;45.274;5.880;2024-01-27T00:26:53;100482.69;;;6.26;80.75
77706;BME280;66874;45.274;5.880;2024-01-27T00:29:18;100475.75;;;6.25;80.75
77706;BME280;66874;45.274;5.880;2024-01-27T00:31:44;100474.88;;;6.24;80.79
77706;BME280;66874;45.274;5.880;2024-01-27T00:34:09;100473.97;;;6.22;80.72
77706;BME280;66874;45.274;5.880;2024-01-27T00:36:35;100483.41;;;6.19;80.90
77706;BME280;66874;45.274;5.880;2024-01-27T00:39:03;100486.78;;;6.15;80.84
77706;BME280;66874;45.274;5.880;2024-01-27T00:41:29;100491.00;;;6.08;80.96
77706;BME280;66874;45.274;5.880;2024-01-27T00:43:54;100483.13;;;6.05;80.90
77706;BME280;66874;45.274;5.880;2024-01-27T00:46:19;100474.38;;;6.01;81.35
77706;BME280;66874;45.274;5.880;2024-01-27T00:48:45;100482.16;;;6.00;81.14
77706;BME280;66874;45.274;5.880;2024-01-27T00:51:10;100471.78;;;6.00;80.96
77706;BME280;66874;45.274;5.880;2024-01-27T00:53:35;100476.13;;;6.01;81.01
77706;BME280;66874;45.274;5.880;2024-01-27T00:56:01;100482.16;;;6.00;81.24
77706;BME280;66874;45.274;5.880;2024-01-27T00:58:26;100481.22;;;5.96;81.02
77706;BME280;66874;45.274;5.880;2024-01-27T01:00:52;100481.06;;;5.92;81.29
77706;BME280;66874;45.274;5.880;2024-01-27T01:03:17;100477.50;;;5.86;81.33
77706;BME280;66874;45.274;5.880;2024-01-27T01:05:42;100480.88;;;5.84;81.29
77706;BME280;66874;45.274;5.880;2024-01-27T01:08:08;100487.75;;;5.80;81.35
77706;BME280;66874;45.274;5.880;2024-01-27T01:10:33;100485.03;;;5.76;81.42
77706;BME280;66874;45.274;5.880;2024-01-27T01:12:59;100478.94;;;5.74;81.55
77706;BME280;66874;45.274;5.880;2024-01-27T01:15:24;100484.94;;;5.71;81.58
77706;BME280;66874;45.274;5.880;2024-01-27T01:17:49;100480.53;;;5.69;81.69
77706;BME280;66874;45.274;5.880;2024-01-27T01:20:15;100487.53;;;5.71;82.00
77706;BME280;66874;45.274;5.880;2024-01-27T01:22:40;100473.69;;;5.72;81.90
77706;BME280;66874;45.274;5.880;2024-01-27T01:25:06;100471.22;;;5.77;81.76
77706;BME280;66874;45.274;5.880;2024-01-27T01:27:31;100475.66;;;5.82;81.86
77706;BME280;66874;45.274;5.880;2024-01-27T01:29:57;100473.94;;;5.83;81.78
77706;BME280;66874;45.274;5.880;2024-01-27T01:32:22;100475.69;;;5.84;81.80
77706;BME280;66874;45.274;5.880;2024-01-27T01:34:48;100474.78;;;5.80;82.05
77706;BME280;66874;45.274;5.880;2024-01-27T01:37:13;100480.72;;;5.76;81.94
77706;BME280;66874;45.274;5.880;2024-01-27T01:39:39;100481.53;;;5.74;81.92
77706;BME280;66874;45.274;5.880;2024-01-27T01:42:04;100478.06;;;5.73;82.11
77706;BME280;66874;45.274;5.880;2024-01-27T01:44:30;100476.25;;;5.71;82.22
77706;BME280;66874;45.274;5.880;2024-01-27T01:46:57;100480.50;;;5.67;82.20
77706;BME280;66874;45.274;5.880;2024-01-27T01:49:23;100476.19;;;5.68;82.31
77706;BME280;66874;45.274;5.880;2024-01-27T01:51:49;100481.44;;;5.69;82.18
77706;BME280;66874;45.274;5.880;2024-01-27T01:54:15;100480.53;;;5.69;82.04
77706;BME280;66874;45.274;5.880;2024-01-27T01:56:42;100477.94;;;5.69;82.37
77706;BME280;66874;45.274;5.880;2024-01-27T01:59:07;100483.97;;;5.66;82.41
77706;BME280;66874;45.274;5.880;2024-01-27T02:01:33;100476.94;;;5.62;82.45
77706;BME280;66874;45.274;5.880;2024-01-27T02:03:58;100476.09;;;5.63;82.40
77706;BME280;66874;45.274;5.880;2024-01-27T02:06:24;100476.19;;;5.68;82.58
77706;BME280;66874;45.274;5.880;2024-01-27T02:08:50;100473.59;;;5.68;82.53
77706;BME280;66874;45.274;5.880;2024-01-27T02:11:16;100473.50;;;5.64;82.71
77706;BME280;66874;45.274;5.880;2024-01-27T02:13:41;100471.75;;;5.62;82.61
77706;BME280;66874;45.274;5.880;2024-01-27T02:16:07;100466.66;;;5.67;82.83
77706;BME280;66874;45.274;5.880;2024-01-27T02:18:32;100463.25;;;5.69;82.74
77706;BME280;66874;45.274;5.880;2024-01-27T02:20:57;100470.28;;;5.73;82.76
77706;BME280;66874;45.274;5.880;2024-01-27T02:23:23;100464.22;;;5.73;82.88
77706;BME280;66874;45.274;5.880;2024-01-27T02:25:48;100467.69;;;5.75;82.83
77706;BME280;66874;45.274;5.880;2024-01-27T02:28:15;100459.03;;;5.74;82.78
77706;BME280;66874;45.274;5.880;2024-01-27T02:30:40;100464.22;;;5.73;82.87
77706;BME280;66874;45.274;5.880;2024-01-27T02:33:06;100471.06;;;5.69;82.89
77706;BME280;66874;45.274;5.880;2024-01-27T02:35:31;100470.09;;;5.66;82.99
77706;BME280;66874;45.274;5.880;2024-01-27T02:37:56;100466.56;;;5.62;83.06
77706;BME280;66874;45.274;5.880;2024-01-27T02:40:22;100475.13;;;5.58;83.12
77706;BME280;66874;45.274;5.880;2024-01-27T02:42:47;100467.19;;;5.53;83.20
77706;BME280;66874;45.274;5.880;2024-01-27T02:45:13;100476.69;;;5.51;83.26
77706;BME280;66874;45.274;5.880;2024-01-27T02:47:38;100477.53;;;5.50;83.31
77706;BME280;66874;45.274;5.880;2024-01-27T02:50:04;100477.53;;;5.50;83.21
77706;BME280;66874;45.274;5.880;2024-01-27T02:52:31;100476.75;;;5.54;83.41
77706;BME280;66874;45.274;5.880;2024-01-27T02:54:57;100479.34;;;5.54;83.47
77706;BME280;66874;45.274;5.880;2024-01-27T02:57:22;100475.88;;;5.54;83.29
77706;BME280;66874;45.274;5.880;2024-01-27T02:59:48;100483.59;;;5.51;83.47
77706;BME280;66874;45.274;5.880;2024-01-27T03:02:14;100481.84;;;5.50;83.38
77706;BME280;66874;45.274;5.880;2024-01-27T03:04:39;100477.44;;;5.47;83.50
77706;BME280;66874;45.274;5.880;2024-01-27T03:07:04;100481.72;;;5.45;83.41
77706;BME280;66874;45.274;5.880;2024-01-27T03:09:30;100486.91;;;5.45;83.43
77706;BME280;66874;45.274;5.880;2024-01-27T03:11:56;100493.88;;;5.46;83.58
77706;BME280;66874;45.274;5.880;2024-01-27T03:14:21;100491.19;;;5.43;83.67
77706;BME280;66874;45.274;5.880;2024-01-27T03:16:48;100491.97;;;5.41;83.50
77706;BME280;66874;45.274;5.880;2024-01-27T03:19:14;100493.72;;;5.40;83.66
77706;BME280;66874;45.274;5.880;2024-01-27T03:21:39;100491.09;;;5.38;83.53
77706;BME280;66874;45.274;5.880;2024-01-27T03:24:04;100489.28;;;5.36;83.68
77706;BME280;66874;45.274;5.880;2024-01-27T03:26:30;100490.06;;;5.32;83.58
77706;BME280;66874;45.274;5.880;2024-01-27T03:28:55;100485.66;;;5.29;83.55
77706;BME280;66874;45.274;5.880;2024-01-27T03:31:21;100484.75;;;5.27;83.75
77706;BME280;66874;45.274;5.880;2024-01-27T03:33:46;100485.53;;;5.25;83.86
77706;BME280;66874;45.274;5.880;2024-01-27T03:36:13;100496.00;;;5.28;83.70
77706;BME280;66874;45.274;5.880;2024-01-27T03:38:41;100493.50;;;5.31;83.62
77706;BME280;66874;45.274;5.880;2024-01-27T03:41:06;100499.56;;;5.31;83.64
77706;BME280;66874;45.274;5.880;2024-01-27T03:43:33;100502.09;;;5.30;83.76
77706;BME280;66874;45.274;5.880;2024-01-27T03:45:58;100497.72;;;5.27;83.69
77706;BME280;66874;45.274;5.880;2024-01-27T03:48:24;100501.09;;;5.25;83.68
77706;BME280;66874;45.274;5.880;2024-01-27T03:50:50;100503.69;;;5.23;83.67
77706;BME280;66874;45.274;5.880;2024-01-27T03:53:15;100511.50;;;5.25;83.74
77706;BME280;66874;45.274;5.880;2024-01-27T03:55:41;100508.09;;;5.27;83.79
77706;BME280;66874;45.274;5.880;2024-01-27T03:58:06;100510.63;;;5.26;83.67
77706;BME280;66874;45.274;5.880;2024-01-27T04:00:32;100508.03;;;5.26;83.84
77706;BME280;66874;45.274;5.880;2024-01-27T04:03:01;100512.44;;;5.28;83.73
77706;BME280;66874;45.274;5.880;2024-01-27T04:05:28;100499.50;;;5.30;84.08
77706;BME280;66874;45.274;5.880;2024-01-27T04:07:54;100505.63;;;5.32;83.99
77706;BME280;66874;45.274;5.880;2024-01-27T04:10:20;100506.53;;;5.34;83.83
77706;BME280;66874;45.274;5.880;2024-01-27T04:12:45;100502.28;;;5.37;83.92
77706;BME280;66874;45.274;5.880;2024-01-27T04:15:10;100502.38;;;5.41;83.74
77706;BME280;66874;45.274;5.880;2024-01-27T04:17:40;100502.56;;;5.48;83.74
77706;BME280;66874;45.274;5.880;2024-01-27T04:20:07;100506.09;;;5.52;83.91
77706;BME280;66874;45.274;5.880;2024-01-27T04:22:33;100501.00;;;5.55;83.76
77706;BME280;66874;45.274;5.880;2024-01-27T04:24:59;100506.31;;;5.61;83.92
77706;BME280;66874;45.274;5.880;2024-01-27T04:27:26;100507.31;;;5.66;83.90
77706;BME280;66874;45.274;5.880;2024-01-27T04:29:51;100516.97;;;5.72;83.87
77706;BME280;66874;45.274;5.880;2024-01-27T04:32:17;100513.59;;;5.76;84.06
77706;BME280;66874;45.274;5.880;2024-01-27T04:34:42;100513.72;;;5.80;84.05
77706;BME280;66874;45.274;5.880;2024-01-27T04:37:07;100519.91;;;5.87;83.95
77706;BME280;66874;45.274;5.880;2024-01-27T04:39:33;100519.13;;;5.91;83.99
77706;BME280;66874;45.274;5.880;2024-01-27T04:41:58;100514.91;;;5.93;84.05
77706;BME280;66874;45.274;5.880;2024-01-27T04:44:23;100519.31;;;5.97;84.19
77706;BME280;66874;45.274;5.880;2024-01-27T04:46:49;100515.84;;;5.97;84.03
77706;BME280;66874;45.274;5.880;2024-01-27T04:49:15;100516.72;;;5.97;84.15
77706;BME280;66874;45.274;5.880;2024-01-27T04:51:40;100512.47;;;6.01;84.18
77706;BME280;66874;45.274;5.880;2024-01-27T04:54:06;100515.19;;;6.05;84.21
77706;BME280;66874;45.274;5.880;2024-01-27T04:56:32;100512.69;;;6.10;84.07
77706;BME280;66874;45.274;5.880;2024-01-27T04:58:57;100504.94;;;6.13;84.38
77706;BME280;66874;45.274;5.880;2024-01-27T05:01:23;100510.16;;;6.15;84.29
77706;BME280;66874;45.274;5.880;2024-01-27T05:03:48;100508.50;;;6.17;84.22
77706;BME280;66874;45.274;5.880;2024-01-27T05:06:14;100500.72;;;6.18;84.35
77706;BME280;66874;45.274;5.880;2024-01-27T05:08:39;100511.19;;;6.21;84.40
77706;BME280;66874;45.274;5.880;2024-01-27T05:11:06;100503.44;;;6.23;84.43
77706;BME280;66874;45.274;5.880;2024-01-27T05:13:31;100497.41;;;6.25;84.50
77706;BME280;66874;45.274;5.880;2024-01-27T05:15:57;100496.53;;;6.25;84.35
77706;BME280;66874;45.274;5.880;2024-01-27T05:18:22;100501.75;;;6.26;84.43
77706;BME280;66874;45.274;5.880;2024-01-27T05:20:47;100504.44;;;6.29;84.45
77706;BME280;66874;45.274;5.880;2024-01-27T05:23:13;100501.84;;;6.29;84.62
77706;BME280;66874;45.274;5.880;2024-01-27T05:25:38;100500.09;;;6.30;84.60
77706;BME280;66874;45.274;5.880;2024-01-27T05:28:04;100504.44;;;6.29;84.57
77706;BME280;66874;45.274;5.880;2024-01-27T05:30:30;100502.69;;;6.30;84.61
77706;BME280;66874;45.274;5.880;2024-01-27T05:32:55;100507.91;;;6.30;84.48
77706;BME280;66874;45.274;5.880;2024-01-27T05:35:23;100506.16;;;6.29;84.70
77706;BME280;66874;45.274;5.880;2024-01-27T05:37:48;100518.28;;;6.30;84.57
77706;BME280;66874;45.274;5.880;2024-01-27T05:40:13;100514.00;;;6.30;84.64
77706;BME280;66874;45.274;5.880;2024-01-27T05:42:41;100514.03;;;6.32;84.54
77706;BME280;66874;45.274;5.880;2024-01-27T05:45:08;100513.16;;;6.33;84.72
77706;BME280;66874;45.274;5.880;2024-01-27T05:47:35;100519.25;;;6.33;84.57
77706;BME280;66874;45.274;5.880;2024-01-27T05:50:01;100511.50;;;6.35;84.70
77706;BME280;66874;45.274;5.880;2024-01-27T05:52:26;100522.84;;;6.39;84.67
77706;BME280;66874;45.274;5.880;2024-01-27T05:54:52;100516.78;;;6.40;84.70
77706;BME280;66874;45.274;5.880;2024-01-27T05:57:18;100515.97;;;6.42;84.51
77706;BME280;66874;45.274;5.880;2024-01-27T05:59:43;100527.31;;;6.46;84.60
77706;BME280;66874;45.274;5.880;2024-01-27T06:02:09;100521.28;;;6.47;84.72
77706;BME280;66874;45.274;5.880;2024-01-27T06:04:34;100521.28;;;6.48;84.70
77706;BME280;66874;45.274;5.880;2024-01-27T06:06:59;100520.50;;;6.51;84.72
77706;BME280;66874;45.274;5.880;2024-01-27T06:09:25;100517.97;;;6.54;84.83
77706;BME280;66874;45.274;5.880;2024-01-27T06:11:50;100517.16;;;6.58;84.86
77706;BME280;66874;45.274;5.880;2024-01-27T06:14:16;100518.91;;;6.59;84.65
77706;BME280;66874;45.274;5.880;2024-01-27T06:16:41;100522.38;;;6.59;84.80
77706;BME280;66874;45.274;5.880;2024-01-27T06:19:06;100505.06;;;6.60;84.78
77706;BME280;66874;45.274;5.880;2024-01-27T06:21:32;100514.59;;;6.61;84.72
77706;BME280;66874;45.274;5.880;2024-01-27T06:23:57;100516.38;;;6.62;84.61
77706;BME280;66874;45.274;5.880;2024-01-27T06:26:23;100516.38;;;6.62;84.87
77706;BME280;66874;45.274;5.880;2024-01-27T06:28:48;100508.59;;;6.62;84.71
77706;BME280;66874;45.274;5.880;2024-01-27T06:31:15;100506.06;;;6.65;84.79
77706;BME280;66874;45.274;5.880;2024-01-27T06:33:41;100505.22;;;6.68;84.87
77706;BME280;66874;45.274;5.880;2024-01-27T06:36:06;100509.63;;;6.72;84.90
77706;BME280;66874;45.274;5.880;2024-01-27T06:38:35;100510.47;;;6.69;84.84
77706;BME280;66874;45.274;5.880;2024-01-27T06:41:00;100510.41;;;6.66;84.86
77706;BME280;66874;45.274;5.880;2024-01-27T06:43:26;100515.53;;;6.65;84.73
77706;BME280;66874;45.274;5.880;2024-01-27T06:45:51;100518.19;;;6.66;84.81
77706;BME280;66874;45.274;5.880;2024-01-27T06:48:16;100514.66;;;6.64;84.89
77706;BME280;66874;45.274;5.880;2024-01-27T06:50:42;100524.13;;;6.59;85.07
77706;BME280;66874;45.274;5.880;2024-01-27T06:53:07;100524.97;;;6.58;85.17
77706;BME280;66874;45.274;5.880;2024-01-27T06:55:35;100525.84;;;6.60;85.16
77706;BME280;66874;45.274;5.880;2024-01-27T06:58:00;100532.78;;;6.59;84.85
77706;BME280;66874;45.274;5.880;2024-01-27T07:00:26;100530.19;;;6.59;84.93
77706;BME280;66874;45.274;5.880;2024-01-27T07:02:52;100536.25;;;6.60;84.88
77706;BME280;66874;45.274;5.880;2024-01-27T07:05:17;100531.13;;;6.63;84.94
77706;BME280;66874;45.274;5.880;2024-01-27T07:07:43;100530.31;;;6.66;84.97
77706;BME280;66874;45.274;5.880;2024-01-27T07:10:08;100537.34;;;6.70;84.90
77706;BME280;66874;45.274;5.880;2024-01-27T07:12:34;100532.22;;;6.74;84.94
77706;BME280;66874;45.274;5.880;2024-01-27T07:14:59;100538.31;;;6.76;84.99
77706;BME280;66874;45.274;5.880;2024-01-27T07:17:29;100542.72;;;6.79;85.08
77706;BME280;66874;45.274;5.880;2024-01-27T07:19:54;100537.63;;;6.85;85.08
77706;BME280;66874;45.274;5.880;2024-01-27T07:22:20;100542.94;;;6.91;84.95
77706;BME280;66874;45.274;5.880;2024-01-27T07:24:45;100540.38;;;6.93;84.89
77706;BME280;66874;45.274;5.880;2024-01-27T07:27:14;100536.94;;;6.94;84.92
77706;BME280;66874;45.274;5.880;2024-01-27T07:29:40;100530.91;;;6.96;84.84
77706;BME280;66874;45.274;5.880;2024-01-27T07:32:05;100539.63;;;6.98;84.92
77706;BME280;66874;45.274;5.880;2024-01-27T07:34:32;100534.47;;;7.01;84.90
77706;BME280;66874;45.274;5.880;2024-01-27T07:36:58;100538.81;;;7.01;84.74
77706;BME280;66874;45.274;5.880;2024-01-27T07:39:23;100544.03;;;7.02;84.75
77706;BME280;66874;45.274;5.880;2024-01-27T07:41:49;100536.22;;;7.02;84.71
77706;BME280;66874;45.274;5.880;2024-01-27T07:44:14;100545.75;;;7.02;84.66
77706;BME280;66874;45.274;5.880;2024-01-27T07:46:40;100544.94;;;7.04;84.82
77706;BME280;66874;45.274;5.880;2024-01-27T07:49:07;100545.84;;;7.06;84.98
77706;BME280;66874;45.274;5.880;2024-01-27T07:51:33;100550.25;;;7.10;84.82
77706;BME280;66874;45.274;5.880;2024-01-27T07:54:00;100561.56;;;7.13;84.80
77706;BME280;66874;45.274;5.880;2024-01-27T07:56:25;100563.38;;;7.17;84.71
77706;BME280;66874;45.274;5.880;2024-01-27T07:58:51;100567.78;;;7.19;84.72
77706;BME280;66874;45.274;5.880;2024-01-27T08:01:17;100572.16;;;7.22;84.75
77706;BME280;66874;45.274;5.880;2024-01-27T08:03:43;100574.06;;;7.32;84.78
77706;BME280;66874;45.274;5.880;2024-01-27T08:06:22;100579.56;;;7.47;84.80
77706;BME280;66874;45.274;5.880;2024-01-27T08:08:48;100566.66;;;7.55;84.55
77706;BME280;66874;45.274;5.880;2024-01-27T08:11:17;100570.28;;;7.62;84.31
77706;BME280;66874;45.274;5.880;2024-01-27T08:13:43;100572.91;;;7.65;84.22
77706;BME280;66874;45.274;5.880;2024-01-27T08:16:08;100574.75;;;7.70;84.23
77706;BME280;66874;45.274;5.880;2024-01-27T08:18:41;100572.22;;;7.75;84.11
77706;BME280;66874;45.274;5.880;2024-01-27T08:21:09;100574.06;;;7.80;84.08
77706;BME280;66874;45.274;5.880;2024-01-27T08:23:34;100579.34;;;7.85;83.96
77706;BME280;66874;45.274;5.880;2024-01-27T08:26:00;100592.38;;;7.85;83.82
77706;BME280;66874;45.274;5.880;2024-01-27T08:28:26;100585.34;;;7.82;83.82
77706;BME280;66874;45.274;5.880;2024-01-27T08:30:51;100584.50;;;7.82;83.85
77706;BME280;66874;45.274;5.880;2024-01-27T08:33:17;100588.78;;;7.78;83.84
77706;BME280;66874;45.274;5.880;2024-01-27T08:35:42;100604.41;;;7.78;84.26
77706;BME280;66874;45.274;5.880;2024-01-27T08:38:07;100605.28;;;7.79;84.04
77706;BME280;66874;45.274;5.880;2024-01-27T08:40:34;100612.28;;;7.81;83.92
77706;BME280;66874;45.274;5.880;2024-01-27T08:43:01;100602.72;;;7.82;84.04
77706;BME280;66874;45.274;5.880;2024-01-27T08:45:26;100607.94;;;7.83;83.86
77706;BME280;66874;45.274;5.880;2024-01-27T08:47:52;100606.25;;;7.86;83.93
77706;BME280;66874;45.274;5.880;2024-01-27T08:50:17;100608.88;;;7.87;83.74
77706;BME280;66874;45.274;5.880;2024-01-27T08:52:43;100615.88;;;7.90;83.88
77706;BME280;66874;45.274;5.880;2024-01-27T08:55:08;100618.50;;;7.91;83.81
77706;BME280;66874;45.274;5.880;2024-01-27T08:57:34;100615.13;;;7.97;83.69
77706;BME280;66874;45.274;5.880;2024-01-27T08:59:59;100610.00;;;8.01;83.57
77706;BME280;66874;45.274;5.880;2024-01-27T09:02:25;100614.41;;;8.05;83.67
77706;BME280;66874;45.274;5.880;2024-01-27T09:04:50;100621.41;;;8.08;83.46
77706;BME280;66874;45.274;5.880;2024-01-27T09:07:16;100619.72;;;8.13;83.82
77706;BME280;66874;45.274;5.880;2024-01-27T09:09:41;100621.63;;;8.23;83.30
77706;BME280;66874;45.274;5.880;2024-01-27T09:12:07;100620.06;;;8.35;83.31
77706;BME280;66874;45.274;5.880;2024-01-27T09:14:32;100630.00;;;8.59;83.50
77706;BME280;66874;45.274;5.880;2024-01-27T09:17:01;100627.66;;;8.78;83.31
77706;BME280;66874;45.274;5.880;2024-01-27T09:19:27;100632.25;;;8.98;82.89
77706;BME280;66874;45.274;5.880;2024-01-27T09:21:53;100628.91;;;9.10;82.62
77706;BME280;66874;45.274;5.880;2024-01-27T09:24:18;100623.81;;;9.20;82.47
77706;BME280;66874;45.274;5.880;2024-01-27T09:26:43;100628.38;;;9.38;82.42
77706;BME280;66874;45.274;5.880;2024-01-27T09:29:09;100622.41;;;9.53;81.97
77706;BME280;66874;45.274;5.880;2024-01-27T09:31:34;100617.41;;;9.73;81.80
77706;BME280;66874;45.274;5.880;2024-01-27T09:34:00;100614.88;;;9.87;81.53
77706;BME280;66874;45.274;5.880;2024-01-27T09:36:26;100618.47;;;9.96;81.23
77706;BME280;66874;45.274;5.880;2024-01-27T09:38:51;100622.16;;;10.23;81.20
77706;BME280;66874;45.274;5.880;2024-01-27T09:41:17;100625.00;;;10.55;80.58
77706;BME280;66874;45.274;5.880;2024-01-27T09:43:45;100624.28;;;10.81;79.93
77706;BME280;66874;45.274;5.880;2024-01-27T09:46:15;100621.72;;;10.93;79.40
77706;BME280;66874;45.274;5.880;2024-01-27T09:48:40;100625.31;;;11.15;79.40
77706;BME280;66874;45.274;5.880;2024-01-27T09:51:07;100621.91;;;11.60;78.74
77706;BME280;66874;45.274;5.880;2024-01-27T09:53:33;100619.34;;;12.08;78.25
77706;BME280;66874;45.274;5.880;2024-01-27T09:55:58;100629.78;;;12.54;77.12
77706;BME280;66874;45.274;5.880;2024-01-27T09:58:26;100625.31;;;12.88;76.04
77706;BME280;66874;45.274;5.880;2024-01-27T10:00:56;100618.22;;;13.08;75.20
77706;BME280;66874;45.274;5.880;2024-01-27T10:03:25;100620.81;;;13.27;74.56
77706;BME280;66874;45.274;5.880;2024-01-27T10:05:53;100625.03;;;13.51;73.99
77706;BME280;66874;45.274;5.880;2024-01-27T10:08:19;100620.59;;;13.59;73.68
77706;BME280;66874;45.274;5.880;2024-01-27T10:10:45;100620.47;;;13.80;73.13
77706;BME280;66874;45.274;5.880;2024-01-27T10:13:13;100616.72;;;14.07;72.52
77706;BME280;66874;45.274;5.880;2024-01-27T10:15:39;100612.09;;;14.34;72.02
77706;BME280;66874;45.274;5.880;2024-01-27T10:18:05;100609.25;;;14.55;71.27
77706;BME280;66874;45.274;5.880;2024-01-27T10:20:31;100617.91;;;14.70;70.58
77706;BME280;66874;45.274;5.880;2024-01-27T10:22:57;100611.59;;;14.84;69.86
77706;BME280;66874;45.274;5.880;2024-01-27T10:25:23;100605.94;;;15.13;69.38
77706;BME280;66874;45.274;5.880;2024-01-27T10:27:48;100608.19;;;15.41;68.79
77706;BME280;66874;45.274;5.880;2024-01-27T10:30:17;100599.06;;;15.63;67.63
77706;BME280;66874;45.274;5.880;2024-01-27T10:32:44;100602.31;;;15.82;67.18
77706;BME280;66874;45.274;5.880;2024-01-27T10:35:19;100603.88;;;15.94;66.48
77706;BME280;66874;45.274;5.880;2024-01-27T10:37:44;100597.69;;;15.97;66.01
77706;BME280;66874;45.274;5.880;2024-01-27T10:40:10;100599.34;;;16.04;65.96
77706;BME280;66874;45.274;5.880;2024-01-27T10:42:38;100603.50;;;16.17;65.38
77706;BME280;66874;45.274;5.880;2024-01-27T10:45:04;100590.22;;;16.22;64.81
77706;BME280;66874;45.274;5.880;2024-01-27T10:47:31;100591.66;;;16.40;64.65
77706;BME280;66874;45.274;5.880;2024-01-27T10:49:58;100587.50;;;16.74;64.51
77706;BME280;66874;45.274;5.880;2024-01-27T10:52:36;100582.59;;;16.98;63.38
77706;BME280;66874;45.274;5.880;2024-01-27T10:55:04;100577.66;;;17.23;63.02
77706;BME280;66874;45.274;5.880;2024-01-27T10:57:33;100584.50;;;17.31;62.05
77706;BME280;66874;45.274;5.880;2024-01-27T11:00:00;100579.78;;;17.44;61.91
77706;BME280;66874;45.274;5.880;2024-01-27T11:02:32;100564.47;;;17.58;60.91
77706;BME280;66874;45.274;5.880;2024-01-27T11:05:00;100563.59;;;17.58;60.65
77706;BME280;66874;45.274;5.880;2024-01-27T11:07:26;100557.22;;;17.67;60.59
77706;BME280;66874;45.274;5.880;2024-01-27T11:09:52;100561.25;;;17.83;60.20
77706;BME280;66874;45.274;5.880;2024-01-27T11:12:19;100559.97;;;17.99;59.45
77706;BME280;66874;45.274;5.880;2024-01-27T11:14:47;100556.53;;;17.96;59.30
77706;BME280;66874;45.274;5.880;2024-01-27T11:17:14;100550.00;;;18.09;59.02
77706;BME280;66874;45.274;5.880;2024-01-27T11:19:41;100539.19;;;18.18;58.19
77706;BME280;66874;45.274;5.880;2024-01-27T11:22:06;100546.53;;;18.07;57.75
77706;BME280;66874;45.274;5.880;2024-01-27T11:24:32;100537.22;;;18.25;58.04
77706;BME280;66874;45.274;5.880;2024-01-27T11:29:27;100525.69;;;18.59;56.76
77706;BME280;66874;45.274;5.880;2024-01-27T11:31:55;100527.09;;;18.72;56.72
77706;BME280;66874;45.274;5.880;2024-01-27T11:34:21;100530.84;;;18.94;56.60
77706;BME280;66874;45.274;5.880;2024-01-27T11:36:47;100517.22;;;19.07;55.82
77706;BME280;66874;45.274;5.880;2024-01-27T11:39:29;100521.41;;;19.14;55.55
77706;BME280;66874;45.274;5.880;2024-01-27T11:42:12;100511.56;;;19.17;54.82
77706;BME280;66874;45.274;5.880;2024-01-27T11:44:41;100507.53;;;19.34;54.77
77706;BME280;66874;45.274;5.880;2024-01-27T11:47:19;100504.91;;;19.59;54.08
77706;BME280;66874;45.274;5.880;2024-01-27T11:49:52;100501.94;;;19.69;53.33
77706;BME280;66874;45.274;5.880;2024-01-27T11:52:18;100494.22;;;19.88;53.58
77706;BME280;66874;45.274;5.880;2024-01-27T11:54:44;100486.91;;;19.95;52.36
77706;BME280;66874;45.274;5.880;2024-01-27T11:57:09;100484.47;;;19.89;52.69
77706;BME280;66874;45.274;5.880;2024-01-27T11:59:35;100489.31;;;20.03;52.27
77706;BME280;66874;45.274;5.880;2024-01-27T12:02:01;100480.34;;;20.30;52.33
77706;BME280;66874;45.274;5.880;2024-01-27T12:04:27;100475.16;;;20.51;51.84
77706;BME280;66874;45.274;5.880;2024-01-27T12:06:53;100473.25;;;20.78;51.69
77706;BME280;66874;45.274;5.880;2024-01-27T12:09:19;100473.56;;;21.14;50.99
77706;BME280;66874;45.274;5.880;2024-01-27T12:11:45;100470.16;;;21.76;50.12
77706;BME280;66874;45.274;5.880;2024-01-27T12:14:11;100459.56;;;22.74;48.15
77706;BME280;66874;45.274;5.880;2024-01-27T12:16:37;100460.50;;;23.64;46.32
77706;BME280;66874;45.274;5.880;2024-01-27T12:19:03;100459.22;;;24.23;44.98
77706;BME280;66874;45.274;5.880;2024-01-27T12:21:29;100454.22;;;24.82;43.57
77706;BME280;66874;45.274;5.880;2024-01-27T12:23:56;100453.47;;;25.12;42.61
77706;BME280;66874;45.274;5.880;2024-01-27T12:26:22;100450.03;;;25.25;42.28
77706;BME280;66874;45.274;5.880;2024-01-27T12:28:48;100442.28;;;25.35;41.42
77706;BME280;66874;45.274;5.880;2024-01-27T12:31:16;100435.13;;;25.36;41.32
77706;BME280;66874;45.274;5.880;2024-01-27T12:33:53;100433.59;;;25.62;40.83
77706;BME280;66874;45.274;5.880;2024-01-27T12:36:20;100425.44;;;25.93;39.75
77706;BME280;66874;45.274;5.880;2024-01-27T12:38:54;100430.44;;;26.28;38.50
77706;BME280;66874;45.274;5.880;2024-01-27T12:41:20;100414.94;;;26.33;38.25
77706;BME280;66874;45.274;5.880;2024-01-27T12:43:45;100409.09;;;26.41;37.85
77706;BME280;66874;45.274;5.880;2024-01-27T12:46:11;100410.91;;;26.26;37.27
77706;BME280;66874;45.274;5.880;2024-01-27T12:48:37;100404.09;;;26.20;37.50
77706;BME280;66874;45.274;5.880;2024-01-27T12:51:04;100413.75;;;25.80;37.69
77706;BME280;66874;45.274;5.880;2024-01-27T12:53:30;100408.09;;;25.24;38.20